createdAt,value
2023-02-18T00:00:27.557Z,27.1
2023-02-18T00:06:05.757Z,27.1
2023-02-18T00:11:43.325Z,27
2023-02-18T00:17:05.220Z,27
2023-02-18T00:22:11.031Z,27
2023-02-18T00:27:48.599Z,26.9
2023-02-18T00:33:25.744Z,26.9
2023-02-18T00:38:46.171Z,26.9
2023-02-18T00:44:24.104Z,26.9
2023-02-18T00:50:01.350Z,26.8
2023-02-18T00:55:38.354Z,26.8
2023-02-18T01:01:15.443Z,26.8
2023-02-18T01:06:52.818Z,26.8
2023-02-18T01:12:30.633Z,26.8
2023-02-18T01:18:08.516Z,26.8
2023-02-18T01:23:45.372Z,26.7
2023-02-18T01:29:21.665Z,26.7
2023-02-18T01:35:00.087Z,26.6
2023-02-18T01:40:37.641Z,26.6
2023-02-18T01:46:14.693Z,26.6
2023-02-18T01:51:36.356Z,26.6
2023-02-18T01:57:14.747Z,26.6
2023-02-18T02:02:52.457Z,26.6
2023-02-18T02:08:29.602Z,26.6
2023-02-18T02:14:05.902Z,26.5
2023-02-18T02:19:42.769Z,26.5
2023-02-18T02:25:19.761Z,26.4
2023-02-18T02:30:57.490Z,26.4
2023-02-18T02:36:34.302Z,26.4
2023-02-18T02:42:12.580Z,26.4
2023-02-18T02:47:50.423Z,26.4
2023-02-18T02:53:27.470Z,26.4
2023-02-18T02:59:05.426Z,26.3
2023-02-18T03:04:42.873Z,26.3
2023-02-18T03:10:20.247Z,26.3
2023-02-18T03:15:58.079Z,26.3
2023-02-18T03:21:35.755Z,26.3
2023-02-18T03:27:13.714Z,26.3
2023-02-18T03:32:51.638Z,26.3
2023-02-18T03:38:29.326Z,26.2
2023-02-18T03:44:05.642Z,26.2
2023-02-18T03:54:48.739Z,26.2
2023-02-18T04:00:25.795Z,26.1
2023-02-18T04:06:03.551Z,26.1
2023-02-18T04:11:40.564Z,26.1
2023-02-18T04:17:17.545Z,26.1
2023-02-18T04:22:54.871Z,26.1
2023-02-18T04:28:33.008Z,26
2023-02-18T04:33:58.155Z,26
2023-02-18T04:39:36.448Z,26
2023-02-18T04:45:13.950Z,26
2023-02-18T04:50:51.491Z,25.9
2023-02-18T04:56:27.860Z,25.9
2023-02-18T05:02:04.822Z,25.9
2023-02-18T05:07:10.890Z,25.9
2023-02-18T05:12:47.946Z,25.9
2023-02-18T05:18:10.275Z,25.9
2023-02-18T05:23:34.135Z,25.9
2023-02-18T05:29:11.007Z,25.9
2023-02-18T05:34:48.933Z,25.8
2023-02-18T05:40:27.049Z,25.8
2023-02-18T05:45:33.577Z,25.8
2023-02-18T05:51:12.329Z,25.8
2023-02-18T05:56:48.652Z,25.8
2023-02-18T06:02:25.249Z,25.8
2023-02-18T06:07:48.685Z,25.7
2023-02-18T06:13:10.541Z,25.7
2023-02-18T06:18:48.593Z,25.7
2023-02-18T06:24:25.675Z,25.7
2023-02-18T06:30:03.615Z,25.6
2023-02-18T06:35:42.124Z,25.6
2023-02-18T06:41:20.346Z,25.6
2023-02-18T06:46:58.033Z,25.6
2023-02-18T06:52:37.487Z,25.6
2023-02-18T06:57:43.602Z,25.6
2023-02-18T07:03:21.392Z,25.6
2023-02-18T07:08:59.513Z,25.6
2023-02-18T07:14:36.866Z,25.6
2023-02-18T07:20:14.207Z,25.5
2023-02-18T07:25:51.340Z,25.6
2023-02-18T07:31:12.889Z,25.5
2023-02-18T07:36:50.339Z,25.5
2023-02-18T07:42:27.442Z,25.5
2023-02-18T07:48:05.202Z,25.4
2023-02-18T07:53:43.110Z,25.4
2023-02-18T07:59:21.331Z,25.4
2023-02-18T08:04:58.203Z,25.4
2023-02-18T08:10:35.179Z,25.4
2023-02-18T08:16:22.882Z,25.4
2023-02-18T08:22:00.037Z,25.4
2023-02-18T08:27:49.757Z,25.4
2023-02-18T08:33:28.042Z,25.4
2023-02-18T08:38:58.919Z,25.3
2023-02-18T08:44:35.376Z,25.3
2023-02-18T08:51:43.096Z,25.3
2023-02-18T08:57:20.641Z,25.3
2023-02-18T09:02:45.015Z,25.3
2023-02-18T09:08:07.341Z,35.9
2023-02-18T09:13:43.303Z,38.4
2023-02-18T09:19:20.318Z,36.4
2023-02-18T09:24:57.935Z,34.6
2023-02-18T09:30:35.840Z,39.9
2023-02-18T09:36:31.682Z,41.3
2023-02-18T09:42:11.101Z,45.3
2023-02-18T09:47:32.919Z,46.1
2023-02-18T09:53:12.924Z,47.1
2023-02-18T09:58:52.523Z,47.3
2023-02-18T10:04:31.851Z,47.3
2023-02-18T10:10:09.961Z,48.9
2023-02-18T10:15:31.871Z,50.2
2023-02-18T10:21:14.268Z,51.2
2023-02-18T10:26:51.343Z,52.3
2023-02-18T10:32:13.939Z,52.8
2023-02-18T10:37:50.833Z,52.9
2023-02-18T10:43:11.673Z,53.9
2023-02-18T10:48:47.992Z,54.4
2023-02-18T10:54:25.646Z,55.3
2023-02-18T11:00:02.312Z,55.5
2023-02-18T11:05:40.837Z,54.1
2023-02-18T11:11:02.435Z,54.5
2023-02-18T11:16:37.084Z,54.5
2023-02-18T11:21:59.071Z,54.1
2023-02-18T11:27:05.477Z,54
2023-02-18T11:32:28.309Z,54.5
2023-02-18T11:38:05.662Z,54.9
2023-02-18T11:43:27.667Z,55.3
2023-02-18T11:49:03.796Z,55.5
2023-02-18T11:54:40.789Z,55.9
2023-02-18T12:00:03.164Z,56
2023-02-18T12:05:10.180Z,56
2023-02-18T12:10:47.513Z,56
2023-02-18T12:16:26.298Z,56.3
2023-02-18T12:22:05.722Z,56
2023-02-18T12:27:43.352Z,55.1
2023-02-18T12:33:05.964Z,55.3
2023-02-18T12:38:43.379Z,55.1
2023-02-18T12:44:22.375Z,55
2023-02-18T12:49:59.892Z,54.7
2023-02-18T12:55:36.493Z,54.8
2023-02-18T13:00:42.923Z,55.3
2023-02-18T13:06:05.471Z,55.3
2023-02-18T13:11:27.286Z,55.3
2023-02-18T13:16:48.681Z,55.3
2023-02-18T13:22:27.775Z,55.1
2023-02-18T13:27:52.003Z,54.4
2023-02-18T13:33:30.654Z,53.8
2023-02-18T13:39:08.069Z,53
2023-02-18T13:44:44.951Z,49.8
2023-02-18T13:50:21.922Z,45.9
2023-02-18T13:55:59.138Z,42.8
2023-02-18T14:01:36.886Z,40.5
2023-02-18T14:07:15.154Z,39
2023-02-18T14:12:52.139Z,37.8
2023-02-18T14:18:29.110Z,37.4
2023-02-18T14:24:06.552Z,36.8
2023-02-18T14:29:44.381Z,36.4
2023-02-18T14:35:12.208Z,35.9
2023-02-18T14:40:50.815Z,35.5
2023-02-18T14:46:12.726Z,35.1
2023-02-18T14:51:49.304Z,34.8
2023-02-18T14:57:26.619Z,34.4
2023-02-18T15:03:04.568Z,34.1
2023-02-18T15:08:42.354Z,33.8
2023-02-18T15:14:05.656Z,33.6
2023-02-18T15:19:46.348Z,33.3
2023-02-18T15:25:25.069Z,33.1
2023-02-18T15:31:02.559Z,32.8
2023-02-18T15:36:25.851Z,32.5
2023-02-18T15:42:02.895Z,32.3
2023-02-18T15:47:41.544Z,32
2023-02-18T15:53:13.313Z,31.8
2023-02-18T15:58:51.461Z,31.5
2023-02-18T16:04:29.992Z,31.3
2023-02-18T16:09:53.603Z,31.1
2023-02-18T16:15:01.060Z,30.9
2023-02-18T16:20:20.900Z,30.8
2023-02-18T16:25:43.240Z,30.6
2023-02-18T16:31:21.566Z,30.4
2023-02-18T16:36:56.329Z,30.3
2023-02-18T16:42:35.298Z,30.2
2023-02-18T16:47:57.653Z,30.1
2023-02-18T16:53:36.705Z,29.9
2023-02-18T16:59:14.528Z,29.8
2023-02-18T17:04:55.003Z,29.7
2023-02-18T17:10:30.673Z,29.6
2023-02-18T17:16:09.166Z,29.5
2023-02-18T17:21:48.568Z,29.3
2023-02-18T17:27:26.608Z,28.9
2023-02-18T17:33:05.651Z,28.7
2023-02-18T17:38:43.785Z,28.6
2023-02-18T17:44:22.930Z,28.4
2023-02-18T17:49:49.432Z,28.4
2023-02-18T17:55:26.830Z,28.3
2023-02-18T18:00:33.219Z,28.3
2023-02-18T18:05:55.773Z,28.2
2023-02-18T18:11:32.491Z,28.1
2023-02-18T18:17:10.073Z,28.1
2023-02-18T18:22:47.900Z,28
2023-02-18T18:28:25.589Z,27.9
2023-02-18T18:34:02.204Z,27.9
2023-02-18T18:50:24.437Z,27.8
2023-02-18T18:56:03.117Z,27.7
2023-02-18T19:01:44.135Z,27.7
2023-02-18T19:07:21.085Z,27.6
2023-02-18T19:12:59.094Z,27.6
2023-02-18T19:18:36.817Z,27.6
2023-02-18T19:24:13.716Z,27.5
2023-02-18T19:29:52.088Z,27.5
2023-02-18T19:35:29.877Z,27.4
2023-02-18T19:41:05.965Z,27.4
2023-02-18T19:46:43.989Z,27.4
2023-02-18T19:52:21.136Z,27.3
2023-02-18T19:57:58.632Z,27.3
2023-02-18T20:03:36.942Z,27.3
2023-02-18T20:08:58.396Z,27.3
2023-02-18T20:14:36.195Z,27.3
2023-02-18T20:20:14.062Z,27.3
2023-02-18T20:26:24.063Z,27.2
2023-02-18T20:31:57.033Z,27.2
2023-02-18T20:37:35.439Z,27.1
2023-02-18T20:43:37.839Z,27.1
2023-02-18T20:49:00.102Z,27.1
2023-02-18T20:54:37.914Z,27
2023-02-18T21:00:15.305Z,27
2023-02-18T21:05:54.601Z,27.1
2023-02-18T21:11:32.263Z,27
2023-02-18T21:17:09.839Z,26.9
2023-02-18T21:22:48.163Z,26.9
2023-02-18T21:28:11.120Z,26.9
2023-02-18T21:33:49.197Z,26.9
2023-02-18T21:39:25.656Z,26.9
2023-02-18T21:44:58.714Z,26.8
2023-02-18T21:50:37.132Z,26.8
2023-02-18T21:56:20.781Z,26.8
2023-02-18T22:02:17.244Z,26.8
2023-02-18T22:07:54.621Z,26.8
2023-02-18T22:13:15.668Z,26.7
2023-02-18T22:18:54.173Z,26.7
2023-02-18T22:24:32.342Z,26.7
2023-02-18T22:30:09.206Z,26.6
2023-02-18T22:35:49.744Z,26.6
2023-02-18T22:41:28.519Z,26.6
2023-02-18T22:47:05.258Z,26.6
2023-02-18T22:52:42.805Z,26.6
2023-02-18T22:58:19.728Z,26.6
2023-02-18T23:03:56.296Z,26.6
2023-02-18T23:09:33.641Z,26.6
2023-02-18T23:14:56.149Z,26.6
2023-02-18T23:20:18.546Z,26.5
2023-02-18T23:25:55.693Z,26.5
2023-02-18T23:31:33.882Z,26.5
2023-02-18T23:37:11.496Z,26.5
2023-02-18T23:42:33.486Z,26.4
2023-02-18T23:48:10.869Z,26.4
2023-02-18T23:53:47.689Z,26.4
2023-02-18T23:59:25.265Z,26.4
